Hoegh Berlin — C6XQ4 — position and weather

sailwx.info

Track history (hours):
 
Tides and Currents Weather Stations Pressure Air Temp Water Temp Dewpoint Dewpoint Depression Visibility Wind Speed Wind Dir Waves Ship Positions

Hoegh Berlin

Last reported at 2017-Dec-10 17:04 UTC. Time now 2017-Dec-13 07:25 UTC.
Position S 38°22' E 148°59'.

Length 228 m; draft 7.8 m.

Type: Cargo ship. MMSI: 311019100.

Date/timePositionNaut miles runAvg speedWind from/ knotsBaromVisibWave heightAir tempDewpointWater temp
2017-Dec-10 17:04S 38°22' E 148°59'115.1
2017-Dec-10 17:00S 38°23' E 148°58'5814.1
2017-Dec-10 12:53S 38°53' E 147°54'614.2
2017-Dec-10 12:29S 38°54' E 147°48'914.7
2017-Dec-10 11:51S 38°57' E 147°36'614.8
2017-Dec-10 11:29S 38°60' E 147°30'714.9
2017-Dec-10 11:00S 39°02' E 147°21'1114.8
2017-Dec-10 10:15S 39°05' E 147°07'414.6
2017-Dec-10 10:00S 39°06' E 147°03'814.7
2017-Dec-10 09:29S 39°09' E 146°54'1214.9
2017-Dec-10 08:40S 39°15' E 146°40'  
Track history (hours):
 
Tides and Currents Weather Stations Pressure Air Temp Water Temp Dewpoint Dewpoint Depression Visibility Wind Speed Wind Dir Waves Ship Positions

Hoegh Berlin

Last reported at 2017-Dec-10 17:04 UTC. Time now 2017-Dec-13 07:25 UTC.
Position S 38°22' E 148°59'.

Length 228 m; draft 7.8 m.

Type: Cargo ship. MMSI: 311019100.

Date/timePositionNaut miles runAvg speedWind from/ knotsBaromVisibWave heightAir tempDewpointWater temp
2017-Dec-10 17:04S 38°22' E 148°59'115.1
2017-Dec-10 17:00S 38°23' E 148°58'5814.1
2017-Dec-10 12:53S 38°53' E 147°54'614.2
2017-Dec-10 12:29S 38°54' E 147°48'914.7
2017-Dec-10 11:51S 38°57' E 147°36'614.8
2017-Dec-10 11:29S 38°60' E 147°30'714.9
2017-Dec-10 11:00S 39°02' E 147°21'1114.8
2017-Dec-10 10:15S 39°05' E 147°07'414.6
2017-Dec-10 10:00S 39°06' E 147°03'814.7
2017-Dec-10 09:29S 39°09' E 146°54'1214.9
2017-Dec-10 08:40S 39°15' E 146°40'  

Dump ship's entire track history